Time;durP1;ratioP1;P1;durP2;ratioP2;P2;SDS_P1;SDS_P2;PMS_P1;PMS_P2;Temp;Humidity;BMP_temperature;BMP_pressure;BME280_temperature;BME280_humidity;BME280_pressure;Samples;Min_cycle;Max_cycle;Signal;HPM_P1;HPM_P2
2024/02/04 00:07:26;;;;;;;5.60;4.00;;;;;;;7.11;100.00;98390.66;436387;1253;99209;-40
2024/02/04 00:17:31;;;;;;;5.90;3.00;;;;;;;7.14;100.00;98388.10;436319;1253;108514;-39
2024/02/04 00:27:34;;;;;;;4.90;4.10;;;;;;;7.17;100.00;98386.77;436360;1254;98006;-39
2024/02/04 00:37:38;;;;;;;4.40;2.80;;;;;;;7.20;100.00;98403.86;436328;1248;111656;-39
2024/02/04 00:47:41;;;;;;;3.50;2.80;;;;;;;7.17;100.00;98393.50;436328;1251;108331;-40
2024/02/04 00:57:45;;;;;;;3.20;1.40;;;;;;;7.13;100.00;98394.77;436248;1253;99211;-40
2024/02/04 01:07:48;;;;;;;1.30;1.10;;;;;;;7.00;100.00;98396.02;436287;1252;108231;-42
2024/02/04 01:17:55;;;;;;;2.80;1.20;;;;;;;6.90;100.00;98403.90;436257;1251;97998;-40
2024/02/04 01:28:02;;;;;;;1.20;0.60;;;;;;;6.85;99.99;98401.33;436186;1253;111847;-39
2024/02/04 01:38:06;;;;;;;1.50;0.70;;;;;;;6.84;99.86;98384.95;436086;1253;107632;-39
2024/02/04 01:48:10;;;;;;;1.00;0.80;;;;;;;6.83;99.62;98383.88;436278;1253;99207;-39
2024/02/04 02:08:21;;;;;;;1.40;0.90;;;;;;;6.60;99.18;98379.91;436799;1250;99259;-39
2024/02/04 02:18:28;;;;;;;1.50;0.80;;;;;;;6.58;99.00;98367.52;435480;1263;111894;-39
2024/02/04 02:28:32;;;;;;;2.80;1.30;;;;;;;6.58;98.84;98365.73;435369;1253;108169;-40
2024/02/04 02:38:44;;;;;;;4.90;1.60;;;;;;;6.51;98.70;98366.91;435429;1253;99237;-39
2024/02/04 02:48:48;;;;;;;2.80;1.40;;;;;;;6.34;98.53;98364.16;435407;1253;108516;-39
2024/02/04 02:58:51;;;;;;;2.80;1.40;;;;;;;6.21;98.26;98360.63;435374;1253;99229;-41
2024/02/04 03:19:05;;;;;;;1.60;1.10;;;;;;;6.25;98.20;98381.17;435311;1250;108391;-39
2024/02/04 03:29:09;;;;;;;2.10;1.40;;;;;;;6.22;98.07;98372.77;435513;1251;99230;-39
2024/02/04 03:39:12;;;;;;;4.60;1.30;;;;;;;6.24;97.73;98380.16;435521;1253;108482;-40
2024/02/04 03:49:15;;;;;;;1.70;1.60;;;;;;;6.28;97.58;98385.11;435375;1252;98043;-39
2024/02/04 03:59:19;;;;;;;2.50;1.50;;;;;;;6.29;97.50;98384.90;435255;1253;110725;-39
2024/02/04 04:09:23;;;;;;;4.00;1.50;;;;;;;6.24;97.42;98382.67;435305;1253;108040;-41
2024/02/04 04:19:26;;;;;;;6.10;1.30;;;;;;;6.11;97.33;98382.20;435527;1253;99215;-39
2024/02/04 04:39:37;;;;;;;1.90;0.90;;;;;;;6.03;96.96;98391.21;435378;1250;102027;-39
2024/02/04 04:49:41;;;;;;;4.50;1.70;;;;;;;5.99;96.50;98400.44;435299;1250;111014;-39
2024/02/04 04:59:47;;;;;;;5.90;2.00;;;;;;;5.86;96.38;98395.14;435398;1253;108582;-39
2024/02/04 05:09:54;;;;;;;7.50;1.90;;;;;;;5.79;96.16;98382.59;435352;1253;99240;-39
2024/02/04 05:19:58;;;;;;;5.20;2.00;;;;;;;5.78;96.20;98385.62;435286;1253;107730;-40
2024/02/04 05:30:02;;;;;;;9.40;3.20;;;;;;;5.72;96.24;98391.17;435410;1251;99240;-40
2024/02/04 05:40:08;;;;;;;5.90;2.50;;;;;;;5.70;96.45;98382.77;435379;1249;115012;-40
2024/02/04 05:50:15;;;;;;;13.10;3.80;;;;;;;5.74;96.66;98374.50;435623;1254;107808;-40
2024/02/04 06:00:19;;;;;;;7.60;2.90;;;;;;;5.81;96.66;98361.48;435391;1253;99383;-39
2024/02/04 06:10:22;;;;;;;6.10;1.70;;;;;;;5.80;96.94;98363.91;435432;1254;109530;-39
2024/02/04 06:20:25;;;;;;;5.50;2.30;;;;;;;5.66;96.68;98381.70;435318;1253;99240;-38
2024/02/04 06:30:32;;;;;;;4.20;1.80;;;;;;;5.46;96.69;98402.23;435302;1263;111697;-38
2024/02/04 06:40:36;;;;;;;3.40;1.90;;;;;;;5.22;96.91;98398.05;435520;1250;108416;-38
2024/02/04 06:51:04;;;;;;;3.60;1.60;;;;;;;5.09;97.09;98413.75;435444;1250;99211;-39
2024/02/04 07:01:08;;;;;;;2.50;1.80;;;;;;;5.05;97.19;98408.15;435332;1253;108281;-39
2024/02/04 07:11:12;;;;;;;7.70;3.10;;;;;;;5.03;97.36;98405.13;435308;1253;99207;-39
2024/02/04 07:21:19;;;;;;;5.30;1.90;;;;;;;5.00;97.06;98413.83;435365;1254;111797;-39
2024/02/04 07:51:28;;;;;;;10.80;2.40;;;;;;;5.15;95.65;98421.29;435465;1255;108567;-38
2024/02/04 08:01:34;;;;;;;7.20;1.70;;;;;;;5.12;95.69;98410.28;435324;1253;99247;-40
2024/02/04 08:11:37;;;;;;;7.70;2.50;;;;;;;5.36;95.93;98403.81;435424;1260;112061;-39
2024/02/04 08:21:40;;;;;;;9.40;3.20;;;;;;;5.62;95.64;98419.48;435430;1255;107439;-39
2024/02/04 08:31:44;;;;;;;7.70;1.80;;;;;;;5.70;94.53;98424.48;435238;1255;523002;-39
2024/02/04 08:41:47;;;;;;;13.70;3.70;;;;;;;5.94;93.07;98440.29;435378;1254;108797;-40
2024/02/04 08:51:51;;;;;;;13.60;3.50;;;;;;;6.00;92.93;98434.42;435418;1254;98009;-40
2024/02/04 09:01:55;;;;;;;5.20;1.70;;;;;;;6.05;92.85;98436.14;437338;1250;110549;-38
2024/02/04 09:11:59;;;;;;;11.00;3.90;;;;;;;6.26;92.17;98431.78;435934;1251;108753;-39
2024/02/04 09:22:03;;;;;;;7.80;3.10;;;;;;;6.67;91.40;98440.95;435698;1251;97943;-39
2024/02/04 09:42:10;;;;;;;11.20;6.70;;;;;;;7.30;88.11;98423.38;435302;1255;99250;-38
2024/02/04 09:52:13;;;;;;;10.90;4.10;;;;;;;7.57;86.69;98408.55;435387;1254;112591;-39
2024/02/04 10:02:19;;;;;;;11.80;4.40;;;;;;;7.70;85.50;98404.87;435927;1251;108087;-39
2024/02/04 10:32:31;;;;;;;6.60;3.00;;;;;;;7.97;81.31;98364.42;435792;1251;98467;-39
2024/02/04 10:52:46;;;;;;;11.00;2.50;;;;;;;8.04;78.54;98329.92;435493;1251;109215;-40
2024/02/04 11:02:49;;;;;;;9.60;3.40;;;;;;;8.19;78.17;98310.83;435560;1254;99214;-39
2024/02/04 11:12:54;;;;;;;9.90;3.70;;;;;;;8.47;76.42;98298.64;435534;1253;108110;-41
2024/02/04 11:23:14;;;;;;;10.60;2.70;;;;;;;8.46;74.55;98304.02;435479;1249;98127;-40
2024/02/04 11:33:19;;;;;;;29.10;8.50;;;;;;;8.48;74.51;98289.27;435675;1250;111125;-40
2024/02/04 11:43:24;;;;;;;8.90;3.80;;;;;;;8.53;73.48;98267.55;435394;1254;106673;-40
2024/02/04 11:53:32;;;;;;;14.10;7.60;;;;;;;8.45;73.70;98257.89;435485;1253;99513;-39
2024/02/04 12:03:36;;;;;;;8.30;3.30;;;;;;;8.19;73.58;98242.67;435641;1251;111519;-39
2024/02/04 12:23:50;;;;;;;13.60;3.70;;;;;;;7.95;74.92;98220.13;435920;1253;99200;-40
2024/02/04 12:33:57;;;;;;;9.10;4.60;;;;;;;7.93;75.44;98204.00;436093;1253;108537;-39
2024/02/04 12:54:09;;;;;;;7.60;2.90;;;;;;;7.75;76.90;98179.09;435337;1253;112108;-39
2024/02/04 13:04:16;;;;;;;8.80;3.10;;;;;;;7.76;77.31;98172.11;435813;1253;109368;-39
2024/02/04 13:14:21;;;;;;;8.50;4.60;;;;;;;7.63;78.10;98154.56;435271;1253;99221;-40
2024/02/04 13:24:26;;;;;;;5.80;3.00;;;;;;;7.63;78.96;98133.47;436331;1251;107658;-39
2024/02/04 13:34:29;;;;;;;8.10;2.70;;;;;;;7.70;79.45;98126.69;435984;1263;99211;-39
2024/02/04 13:44:33;;;;;;;7.80;4.00;;;;;;;7.80;79.94;98104.04;435428;1253;112100;-39
2024/02/04 13:54:36;;;;;;;7.30;4.80;;;;;;;7.68;80.54;98093.76;435522;1253;108092;-41
2024/02/04 14:04:40;;;;;;;10.40;5.40;;;;;;;7.63;81.14;98069.96;436775;1251;100860;-39
2024/02/04 14:14:58;;;;;;;12.20;6.20;;;;;;;7.68;81.68;98065.23;435600;1253;109968;-40
2024/02/04 14:25:01;;;;;;;13.50;7.80;;;;;;;7.74;82.23;98064.41;435521;1253;99081;-39
2024/02/04 14:45:12;;;;;;;90.30;32.20;;;;;;;7.63;83.34;98042.38;437602;1249;110158;-40
2024/02/04 14:55:16;;;;;;;21.50;11.20;;;;;;;7.61;83.58;98031.58;436912;1250;99256;-39
2024/02/04 15:05:24;;;;;;;16.80;12.20;;;;;;;7.56;84.16;98019.45;436261;1250;107735;-39
2024/02/04 15:15:32;;;;;;;13.90;8.90;;;;;;;7.52;84.67;98016.55;437478;1251;99259;-38
2024/02/04 15:25:35;;;;;;;17.80;10.40;;;;;;;7.30;85.35;97989.76;436211;1250;110725;-40
2024/02/04 15:35:40;;;;;;;13.60;7.70;;;;;;;7.21;85.82;97971.36;437434;1250;107769;-41
2024/02/04 15:45:44;;;;;;;14.90;8.60;;;;;;;7.23;86.30;97958.64;435496;1251;101368;-40
2024/02/04 16:05:59;;;;;;;23.70;11.20;;;;;;;7.24;88.10;97943.73;435508;1253;99208;-39
2024/02/04 16:16:08;;;;;;;20.40;9.40;;;;;;;7.29;88.79;97957.05;435505;1253;110938;-40
2024/02/04 16:26:11;;;;;;;14.30;7.00;;;;;;;7.42;88.68;97965.02;435527;1253;107940;-40
2024/02/04 16:36:14;;;;;;;8.60;4.80;;;;;;;7.49;88.25;97954.71;436019;1251;98015;-40
2024/02/04 16:46:18;;;;;;;6.60;3.40;;;;;;;7.52;87.52;97951.42;438230;1253;108654;-39
2024/02/04 16:56:25;;;;;;;7.40;3.70;;;;;;;7.53;87.54;97967.27;438330;1253;99290;-40
2024/02/04 17:16:31;;;;;;;7.30;3.10;;;;;;;7.48;87.18;97984.61;438115;1250;107630;-40
2024/02/04 17:26:36;;;;;;;6.60;3.90;;;;;;;7.42;86.74;97986.27;436861;1253;99105;-40
2024/02/04 17:36:40;;;;;;;4.60;2.90;;;;;;;7.30;85.83;97989.70;437596;1253;107268;-39
2024/02/04 17:46:46;;;;;;;5.30;2.70;;;;;;;7.26;84.93;97992.89;438176;1253;99167;-40
2024/02/04 17:56:48;;;;;;;6.90;2.80;;;;;;;7.14;83.57;98000.95;437977;1253;111165;-39
2024/02/04 18:06:55;;;;;;;8.30;3.40;;;;;;;7.05;81.93;98010.64;437507;1252;107722;-40
2024/02/04 18:27:06;;;;;;;14.50;5.00;;;;;;;6.73;79.63;98015.80;435410;1253;109520;-40
2024/02/04 18:47:13;;;;;;;30.30;12.90;;;;;;;6.45;78.91;98014.94;435866;1253;111300;-39
2024/02/04 19:07:35;;;;;;;12.70;5.60;;;;;;;6.35;78.96;98021.46;435958;1250;99113;-40
2024/02/04 19:17:38;;;;;;;;;;;;;;;6.26;79.09;98028.50;437078;1253;108398;-40
2024/02/04 19:37:55;;;;;;;16.90;5.60;;;;;;;6.24;79.36;98015.59;435481;1251;110487;-39
2024/02/04 19:47:59;;;;;;;37.90;14.20;;;;;;;6.22;79.71;98013.42;436156;1253;109275;-41
2024/02/04 19:58:04;;;;;;;13.00;4.90;;;;;;;6.28;79.66;98011.96;435361;1253;98800;-39
2024/02/04 20:08:07;;;;;;;36.90;14.40;;;;;;;6.31;79.97;97996.29;435629;1250;111119;-40
2024/02/04 20:18:13;;;;;;;66.30;21.60;;;;;;;6.28;80.07;97988.08;435536;1253;99192;-41
2024/02/04 20:28:16;;;;;;;17.80;7.60;;;;;;;6.34;80.25;97981.63;435513;1252;99356;-40
2024/02/04 20:38:20;;;;;;;16.40;4.70;;;;;;;6.47;80.04;97985.75;436397;1251;355892;-39
2024/02/04 20:48:23;;;;;;;5.60;3.30;;;;;;;6.49;79.92;97978.29;436743;1253;108218;-40
2024/02/04 20:58:27;;;;;;;12.00;4.60;;;;;;;6.55;79.81;97958.70;436894;1253;99215;-40
2024/02/04 21:18:42;;;;;;;13.10;3.90;;;;;;;6.52;79.69;97939.46;435809;1252;98004;-41
2024/02/04 21:28:46;;;;;;;10.90;4.50;;;;;;;6.54;79.50;97921.02;435962;1253;112201;-39
2024/02/04 21:38:49;;;;;;;16.90;7.10;;;;;;;6.54;79.61;97912.77;436937;1253;108050;-39
2024/02/04 21:48:53;;;;;;;20.10;8.80;;;;;;;6.48;79.44;97905.17;437749;1250;97928;-40
2024/02/04 21:59:04;;;;;;;12.10;4.80;;;;;;;6.47;79.68;97885.54;437390;1253;108510;-39
2024/02/04 22:09:08;;;;;;;6.50;2.80;;;;;;;6.42;80.11;97893.64;435196;1253;98004;-40
2024/02/04 22:19:13;;;;;;;5.50;3.10;;;;;;;6.28;80.98;97895.02;435408;1253;110677;-40
2024/02/04 22:29:17;;;;;;;8.60;3.90;;;;;;;6.11;81.67;97891.50;435405;1253;106843;-41
2024/02/04 22:49:23;;;;;;;2.60;1.50;;;;;;;5.95;83.02;97895.51;435390;1253;108555;-40
2024/02/04 22:59:29;;;;;;;10.90;5.10;;;;;;;5.76;83.62;97902.84;435407;1249;98029;-40
2024/02/04 23:09:32;;;;;;;3.10;1.80;;;;;;;5.56;84.39;97907.05;435530;1249;111716;-40
2024/02/04 23:19:39;;;;;;;3.20;1.50;;;;;;;5.50;85.12;97900.10;435269;1253;108215;-40
2024/02/04 23:29:44;;;;;;;3.70;1.70;;;;;;;5.39;86.14;97888.04;435377;1253;99253;-41
2024/02/04 23:39:47;;;;;;;2.80;1.10;;;;;;;5.27;86.93;97891.80;435292;1251;108865;-40
2024/02/04 23:59:54;;;;;;;3.10;1.50;;;;;;;5.02;88.58;97880.63;435362;1253;113234;-39
